sensor_id;sensor_type;location;lat;lon;timestamp;P1;durP1;ratioP1;P2;durP2;ratioP2
55391;SDS011;41262;50.922;6.958;2022-08-01T00:02:15;2.15;;;0.60;;
55391;SDS011;41262;50.922;6.958;2022-08-01T00:04:41;2.80;;;0.88;;
55391;SDS011;41262;50.922;6.958;2022-08-01T00:07:08;1.77;;;1.00;;
55391;SDS011;41262;50.922;6.958;2022-08-01T00:09:35;1.35;;;0.93;;
55391;SDS011;41262;50.922;6.958;2022-08-01T00:12:01;1.05;;;0.80;;
55391;SDS011;41262;50.922;6.958;2022-08-01T00:14:28;1.13;;;0.77;;
55391;SDS011;41262;50.922;6.958;2022-08-01T00:16:55;1.00;;;0.73;;
55391;SDS011;41262;50.922;6.958;2022-08-01T00:19:21;1.35;;;0.80;;
55391;SDS011;41262;50.922;6.958;2022-08-01T00:21:48;1.52;;;0.88;;
55391;SDS011;41262;50.922;6.958;2022-08-01T00:24:14;1.98;;;1.00;;
55391;SDS011;41262;50.922;6.958;2022-08-01T00:26:41;1.30;;;0.75;;
55391;SDS011;41262;50.922;6.958;2022-08-01T00:29:07;2.13;;;0.70;;
55391;SDS011;41262;50.922;6.958;2022-08-01T00:31:34;1.08;;;0.75;;
55391;SDS011;41262;50.922;6.958;2022-08-01T00:34:00;2.58;;;0.70;;
55391;SDS011;41262;50.922;6.958;2022-08-01T00:36:27;1.70;;;0.90;;
55391;SDS011;41262;50.922;6.958;2022-08-01T00:38:54;1.10;;;0.90;;
55391;SDS011;41262;50.922;6.958;2022-08-01T00:41:21;1.30;;;1.10;;
55391;SDS011;41262;50.922;6.958;2022-08-01T00:43:47;1.42;;;1.00;;
55391;SDS011;41262;50.922;6.958;2022-08-01T00:46:14;1.27;;;1.00;;
55391;SDS011;41262;50.922;6.958;2022-08-01T00:48:41;2.35;;;1.00;;
55391;SDS011;41262;50.922;6.958;2022-08-01T00:51:07;3.33;;;1.02;;
55391;SDS011;41262;50.922;6.958;2022-08-01T00:53:34;1.65;;;1.20;;
55391;SDS011;41262;50.922;6.958;2022-08-01T00:56:01;1.90;;;1.23;;
55391;SDS011;41262;50.922;6.958;2022-08-01T00:58:28;1.92;;;1.15;;
55391;SDS011;41262;50.922;6.958;2022-08-01T01:00:56;2.00;;;1.17;;
55391;SDS011;41262;50.922;6.958;2022-08-01T01:03:23;1.00;;;0.80;;
55391;SDS011;41262;50.922;6.958;2022-08-01T01:09:02;1.35;;;1.00;;
55391;SDS011;41262;50.922;6.958;2022-08-01T01:11:52;1.88;;;1.10;;
55391;SDS011;41262;50.922;6.958;2022-08-01T01:16:50;1.20;;;0.80;;
55391;SDS011;41262;50.922;6.958;2022-08-01T01:19:20;1.85;;;1.00;;
55391;SDS011;41262;50.922;6.958;2022-08-01T01:24:32;1.83;;;1.23;;
55391;SDS011;41262;50.922;6.958;2022-08-01T01:30:03;2.05;;;1.27;;
55391;SDS011;41262;50.922;6.958;2022-08-01T01:35:00;2.60;;;1.00;;
55391;SDS011;41262;50.922;6.958;2022-08-01T01:37:28;1.40;;;1.08;;
55391;SDS011;41262;50.922;6.958;2022-08-01T01:39:55;1.55;;;1.20;;
55391;SDS011;41262;50.922;6.958;2022-08-01T01:42:23;1.77;;;1.10;;
55391;SDS011;41262;50.922;6.958;2022-08-01T01:44:50;1.05;;;0.80;;
55391;SDS011;41262;50.922;6.958;2022-08-01T01:47:17;1.30;;;0.95;;
55391;SDS011;41262;50.922;6.958;2022-08-01T01:49:44;1.42;;;1.00;;
55391;SDS011;41262;50.922;6.958;2022-08-01T01:52:12;2.83;;;1.40;;
55391;SDS011;41262;50.922;6.958;2022-08-01T01:54:40;1.67;;;1.38;;
55391;SDS011;41262;50.922;6.958;2022-08-01T01:57:08;1.10;;;0.80;;
55391;SDS011;41262;50.922;6.958;2022-08-01T01:59:36;1.98;;;1.30;;
55391;SDS011;41262;50.922;6.958;2022-08-01T02:02:04;1.77;;;1.10;;
55391;SDS011;41262;50.922;6.958;2022-08-01T02:04:32;1.33;;;1.08;;
55391;SDS011;41262;50.922;6.958;2022-08-01T02:07:01;2.28;;;1.00;;
55391;SDS011;41262;50.922;6.958;2022-08-01T02:09:28;3.22;;;1.02;;
55391;SDS011;41262;50.922;6.958;2022-08-01T02:11:55;1.38;;;1.00;;
55391;SDS011;41262;50.922;6.958;2022-08-01T02:14:23;1.88;;;1.15;;
55391;SDS011;41262;50.922;6.958;2022-08-01T02:16:50;1.95;;;1.15;;
55391;SDS011;41262;50.922;6.958;2022-08-01T02:19:17;2.30;;;1.40;;
55391;SDS011;41262;50.922;6.958;2022-08-01T02:21:57;2.63;;;1.08;;
55391;SDS011;41262;50.922;6.958;2022-08-01T02:26:56;2.65;;;1.30;;
55391;SDS011;41262;50.922;6.958;2022-08-01T02:29:27;2.38;;;1.30;;
55391;SDS011;41262;50.922;6.958;2022-08-01T02:31:57;2.33;;;1.15;;
55391;SDS011;41262;50.922;6.958;2022-08-01T02:34:24;3.33;;;1.40;;
55391;SDS011;41262;50.922;6.958;2022-08-01T02:36:51;1.58;;;1.23;;
55391;SDS011;41262;50.922;6.958;2022-08-01T02:39:19;1.75;;;1.13;;
55391;SDS011;41262;50.922;6.958;2022-08-01T02:41:48;2.70;;;1.10;;
55391;SDS011;41262;50.922;6.958;2022-08-01T02:44:23;2.67;;;1.48;;
55391;SDS011;41262;50.922;6.958;2022-08-01T02:46:51;1.77;;;1.25;;
55391;SDS011;41262;50.922;6.958;2022-08-01T02:49:19;4.18;;;1.25;;
55391;SDS011;41262;50.922;6.958;2022-08-01T02:51:47;1.65;;;1.30;;
55391;SDS011;41262;50.922;6.958;2022-08-01T02:54:14;3.95;;;1.50;;
55391;SDS011;41262;50.922;6.958;2022-08-01T02:56:42;1.90;;;1.20;;
55391;SDS011;41262;50.922;6.958;2022-08-01T02:59:12;1.75;;;1.48;;
55391;SDS011;41262;50.922;6.958;2022-08-01T03:01:39;3.97;;;1.73;;
55391;SDS011;41262;50.922;6.958;2022-08-01T03:04:06;2.13;;;1.42;;
55391;SDS011;41262;50.922;6.958;2022-08-01T03:06:33;1.48;;;1.20;;
55391;SDS011;41262;50.922;6.958;2022-08-01T03:09:00;2.15;;;1.38;;
55391;SDS011;41262;50.922;6.958;2022-08-01T03:11:28;1.70;;;1.25;;
55391;SDS011;41262;50.922;6.958;2022-08-01T03:13:55;3.75;;;1.52;;
55391;SDS011;41262;50.922;6.958;2022-08-01T03:16:23;2.38;;;1.30;;
55391;SDS011;41262;50.922;6.958;2022-08-01T03:18:51;3.20;;;1.55;;
55391;SDS011;41262;50.922;6.958;2022-08-01T03:21:19;2.28;;;1.50;;
55391;SDS011;41262;50.922;6.958;2022-08-01T03:23:48;1.85;;;1.48;;
55391;SDS011;41262;50.922;6.958;2022-08-01T03:26:18;4.22;;;1.63;;
55391;SDS011;41262;50.922;6.958;2022-08-01T03:28:45;3.08;;;1.58;;
55391;SDS011;41262;50.922;6.958;2022-08-01T03:31:12;5.05;;;1.80;;
55391;SDS011;41262;50.922;6.958;2022-08-01T03:33:40;3.40;;;1.75;;
55391;SDS011;41262;50.922;6.958;2022-08-01T03:36:07;2.22;;;1.48;;
55391;SDS011;41262;50.922;6.958;2022-08-01T03:38:36;3.10;;;2.08;;
55391;SDS011;41262;50.922;6.958;2022-08-01T03:41:15;3.38;;;1.80;;
55391;SDS011;41262;50.922;6.958;2022-08-01T03:43:46;4.00;;;1.70;;
55391;SDS011;41262;50.922;6.958;2022-08-01T03:46:17;7.40;;;2.33;;
55391;SDS011;41262;50.922;6.958;2022-08-01T03:48:47;3.97;;;1.73;;
55391;SDS011;41262;50.922;6.958;2022-08-01T03:51:14;3.65;;;1.92;;
55391;SDS011;41262;50.922;6.958;2022-08-01T03:53:42;3.28;;;1.70;;
55391;SDS011;41262;50.922;6.958;2022-08-01T03:56:08;3.65;;;2.15;;
55391;SDS011;41262;50.922;6.958;2022-08-01T03:58:36;4.95;;;1.98;;
55391;SDS011;41262;50.922;6.958;2022-08-01T04:01:05;4.13;;;2.17;;
55391;SDS011;41262;50.922;6.958;2022-08-01T04:03:32;3.00;;;2.05;;
55391;SDS011;41262;50.922;6.958;2022-08-01T04:05:59;3.20;;;2.20;;
55391;SDS011;41262;50.922;6.958;2022-08-01T04:08:38;5.97;;;2.20;;
55391;SDS011;41262;50.922;6.958;2022-08-01T04:11:05;3.13;;;1.92;;
55391;SDS011;41262;50.922;6.958;2022-08-01T04:13:32;5.25;;;2.03;;
55391;SDS011;41262;50.922;6.958;2022-08-01T04:15:59;3.08;;;1.75;;
55391;SDS011;41262;50.922;6.958;2022-08-01T04:18:26;3.63;;;2.20;;
55391;SDS011;41262;50.922;6.958;2022-08-01T04:20:52;3.20;;;2.33;;
55391;SDS011;41262;50.922;6.958;2022-08-01T04:23:20;3.85;;;2.05;;
55391;SDS011;41262;50.922;6.958;2022-08-01T04:25:49;3.92;;;2.00;;
55391;SDS011;41262;50.922;6.958;2022-08-01T04:28:16;3.00;;;2.10;;
55391;SDS011;41262;50.922;6.958;2022-08-01T04:30:43;4.05;;;1.77;;
55391;SDS011;41262;50.922;6.958;2022-08-01T04:33:11;2.42;;;1.70;;
55391;SDS011;41262;50.922;6.958;2022-08-01T04:35:39;2.50;;;1.70;;
55391;SDS011;41262;50.922;6.958;2022-08-01T04:38:08;3.67;;;2.30;;
55391;SDS011;41262;50.922;6.958;2022-08-01T04:40:35;4.05;;;2.30;;
55391;SDS011;41262;50.922;6.958;2022-08-01T04:43:04;4.70;;;2.15;;
55391;SDS011;41262;50.922;6.958;2022-08-01T04:45:32;3.72;;;1.85;;
55391;SDS011;41262;50.922;6.958;2022-08-01T04:47:58;2.70;;;1.90;;
55391;SDS011;41262;50.922;6.958;2022-08-01T04:50:26;6.13;;;2.60;;
55391;SDS011;41262;50.922;6.958;2022-08-01T04:52:52;3.92;;;2.63;;
55391;SDS011;41262;50.922;6.958;2022-08-01T04:55:19;5.85;;;2.40;;
55391;SDS011;41262;50.922;6.958;2022-08-01T04:57:46;4.57;;;2.70;;
55391;SDS011;41262;50.922;6.958;2022-08-01T05:00:13;4.18;;;2.35;;
55391;SDS011;41262;50.922;6.958;2022-08-01T05:02:40;5.60;;;2.80;;
55391;SDS011;41262;50.922;6.958;2022-08-01T05:05:07;4.18;;;2.45;;
55391;SDS011;41262;50.922;6.958;2022-08-01T05:07:33;5.47;;;2.60;;
55391;SDS011;41262;50.922;6.958;2022-08-01T05:10:03;2.80;;;2.00;;
55391;SDS011;41262;50.922;6.958;2022-08-01T05:12:29;4.95;;;2.88;;
55391;SDS011;41262;50.922;6.958;2022-08-01T05:14:58;5.57;;;2.58;;
55391;SDS011;41262;50.922;6.958;2022-08-01T05:17:25;4.35;;;2.60;;
55391;SDS011;41262;50.922;6.958;2022-08-01T05:19:51;4.63;;;2.42;;
55391;SDS011;41262;50.922;6.958;2022-08-01T05:22:18;6.65;;;2.63;;
55391;SDS011;41262;50.922;6.958;2022-08-01T05:24:45;5.30;;;2.67;;
55391;SDS011;41262;50.922;6.958;2022-08-01T05:27:12;4.53;;;2.80;;
55391;SDS011;41262;50.922;6.958;2022-08-01T05:29:39;5.25;;;2.45;;
55391;SDS011;41262;50.922;6.958;2022-08-01T05:32:09;5.10;;;2.80;;
55391;SDS011;41262;50.922;6.958;2022-08-01T05:34:36;4.57;;;2.42;;
55391;SDS011;41262;50.922;6.958;2022-08-01T05:37:02;5.78;;;2.78;;
55391;SDS011;41262;50.922;6.958;2022-08-01T05:39:29;4.43;;;2.83;;
55391;SDS011;41262;50.922;6.958;2022-08-01T05:41:56;5.45;;;3.00;;
55391;SDS011;41262;50.922;6.958;2022-08-01T05:44:22;6.65;;;3.20;;
55391;SDS011;41262;50.922;6.958;2022-08-01T05:46:49;5.00;;;3.03;;
55391;SDS011;41262;50.922;6.958;2022-08-01T05:49:16;5.45;;;3.10;;
55391;SDS011;41262;50.922;6.958;2022-08-01T05:51:42;4.78;;;3.10;;
55391;SDS011;41262;50.922;6.958;2022-08-01T05:54:09;4.45;;;2.55;;
55391;SDS011;41262;50.922;6.958;2022-08-01T05:56:35;5.18;;;2.85;;
55391;SDS011;41262;50.922;6.958;2022-08-01T05:59:02;5.88;;;3.03;;
55391;SDS011;41262;50.922;6.958;2022-08-01T06:01:29;6.40;;;3.28;;
55391;SDS011;41262;50.922;6.958;2022-08-01T06:03:55;6.93;;;3.08;;
55391;SDS011;41262;50.922;6.958;2022-08-01T06:06:22;5.75;;;3.35;;
55391;SDS011;41262;50.922;6.958;2022-08-01T06:08:49;7.40;;;4.10;;
55391;SDS011;41262;50.922;6.958;2022-08-01T06:11:15;7.05;;;3.90;;
55391;SDS011;41262;50.922;6.958;2022-08-01T06:13:42;10.70;;;4.40;;
55391;SDS011;41262;50.922;6.958;2022-08-01T06:16:08;10.20;;;4.68;;
55391;SDS011;41262;50.922;6.958;2022-08-01T06:18:35;9.23;;;4.50;;
55391;SDS011;41262;50.922;6.958;2022-08-01T06:21:01;10.27;;;4.32;;
55391;SDS011;41262;50.922;6.958;2022-08-01T06:23:28;7.60;;;4.20;;
55391;SDS011;41262;50.922;6.958;2022-08-01T06:25:54;8.88;;;3.80;;
55391;SDS011;41262;50.922;6.958;2022-08-01T06:28:21;8.18;;;4.63;;
55391;SDS011;41262;50.922;6.958;2022-08-01T06:30:48;7.97;;;4.45;;
55391;SDS011;41262;50.922;6.958;2022-08-01T06:33:15;9.73;;;4.47;;
55391;SDS011;41262;50.922;6.958;2022-08-01T06:35:41;8.10;;;4.20;;
55391;SDS011;41262;50.922;6.958;2022-08-01T06:38:08;7.97;;;4.63;;
55391;SDS011;41262;50.922;6.958;2022-08-01T06:40:34;8.30;;;4.55;;
55391;SDS011;41262;50.922;6.958;2022-08-01T06:43:01;10.50;;;5.07;;
55391;SDS011;41262;50.922;6.958;2022-08-01T06:45:27;10.32;;;4.57;;
55391;SDS011;41262;50.922;6.958;2022-08-01T06:47:54;6.90;;;3.97;;
55391;SDS011;41262;50.922;6.958;2022-08-01T06:50:20;7.43;;;3.90;;
55391;SDS011;41262;50.922;6.958;2022-08-01T06:52:47;6.68;;;3.50;;
55391;SDS011;41262;50.922;6.958;2022-08-01T06:55:14;7.70;;;3.67;;
55391;SDS011;41262;50.922;6.958;2022-08-01T06:57:50;6.55;;;3.65;;
55391;SDS011;41262;50.922;6.958;2022-08-01T07:00:17;6.20;;;4.15;;
55391;SDS011;41262;50.922;6.958;2022-08-01T07:02:47;5.70;;;3.60;;
55391;SDS011;41262;50.922;6.958;2022-08-01T07:05:13;6.35;;;3.65;;
55391;SDS011;41262;50.922;6.958;2022-08-01T07:07:40;6.65;;;4.18;;
55391;SDS011;41262;50.922;6.958;2022-08-01T07:10:06;8.70;;;4.18;;
55391;SDS011;41262;50.922;6.958;2022-08-01T07:12:35;7.93;;;4.10;;
55391;SDS011;41262;50.922;6.958;2022-08-01T07:15:04;9.18;;;4.00;;
55391;SDS011;41262;50.922;6.958;2022-08-01T07:17:30;5.25;;;3.58;;
55391;SDS011;41262;50.922;6.958;2022-08-01T07:19:57;6.97;;;3.35;;
55391;SDS011;41262;50.922;6.958;2022-08-01T07:22:23;7.95;;;4.30;;
55391;SDS011;41262;50.922;6.958;2022-08-01T07:24:50;6.38;;;4.20;;
55391;SDS011;41262;50.922;6.958;2022-08-01T07:27:16;7.72;;;3.65;;
55391;SDS011;41262;50.922;6.958;2022-08-01T07:29:43;5.68;;;3.35;;
55391;SDS011;41262;50.922;6.958;2022-08-01T07:32:10;5.85;;;3.88;;
55391;SDS011;41262;50.922;6.958;2022-08-01T07:34:36;7.55;;;4.15;;
55391;SDS011;41262;50.922;6.958;2022-08-01T07:37:03;6.68;;;4.30;;
55391;SDS011;41262;50.922;6.958;2022-08-01T07:39:29;8.07;;;4.30;;
55391;SDS011;41262;50.922;6.958;2022-08-01T07:41:56;5.38;;;3.38;;
55391;SDS011;41262;50.922;6.958;2022-08-01T07:44:24;5.93;;;3.53;;
55391;SDS011;41262;50.922;6.958;2022-08-01T07:46:50;6.13;;;3.40;;
55391;SDS011;41262;50.922;6.958;2022-08-01T07:49:17;7.75;;;4.30;;
55391;SDS011;41262;50.922;6.958;2022-08-01T07:51:43;7.82;;;4.22;;
55391;SDS011;41262;50.922;6.958;2022-08-01T07:54:10;7.65;;;4.15;;
55391;SDS011;41262;50.922;6.958;2022-08-01T07:56:37;5.55;;;4.35;;
55391;SDS011;41262;50.922;6.958;2022-08-01T07:59:03;7.78;;;4.47;;
55391;SDS011;41262;50.922;6.958;2022-08-01T08:01:30;6.15;;;4.03;;
55391;SDS011;41262;50.922;6.958;2022-08-01T08:03:56;8.93;;;3.78;;
55391;SDS011;41262;50.922;6.958;2022-08-01T08:06:23;7.32;;;4.07;;
55391;SDS011;41262;50.922;6.958;2022-08-01T08:08:49;6.32;;;4.18;;
55391;SDS011;41262;50.922;6.958;2022-08-01T08:11:16;7.25;;;4.68;;
55391;SDS011;41262;50.922;6.958;2022-08-01T08:13:42;8.90;;;3.85;;
55391;SDS011;41262;50.922;6.958;2022-08-01T08:16:09;4.53;;;3.50;;
55391;SDS011;41262;50.922;6.958;2022-08-01T08:18:36;6.78;;;4.07;;
55391;SDS011;41262;50.922;6.958;2022-08-01T08:21:03;6.18;;;3.95;;
55391;SDS011;41262;50.922;6.958;2022-08-01T08:23:31;5.50;;;3.97;;
55391;SDS011;41262;50.922;6.958;2022-08-01T08:26:17;7.85;;;4.15;;
55391;SDS011;41262;50.922;6.958;2022-08-01T08:28:43;6.45;;;4.05;;
55391;SDS011;41262;50.922;6.958;2022-08-01T08:31:10;7.75;;;4.72;;
55391;SDS011;41262;50.922;6.958;2022-08-01T08:33:36;5.88;;;3.72;;
55391;SDS011;41262;50.922;6.958;2022-08-01T08:36:03;7.47;;;3.83;;
55391;SDS011;41262;50.922;6.958;2022-08-01T08:38:30;5.82;;;3.83;;
55391;SDS011;41262;50.922;6.958;2022-08-01T08:40:56;5.90;;;3.80;;
55391;SDS011;41262;50.922;6.958;2022-08-01T08:43:24;5.85;;;3.80;;
55391;SDS011;41262;50.922;6.958;2022-08-01T08:45:51;6.05;;;3.25;;
55391;SDS011;41262;50.922;6.958;2022-08-01T08:48:18;5.28;;;3.22;;
55391;SDS011;41262;50.922;6.958;2022-08-01T08:50:45;5.35;;;3.78;;
55391;SDS011;41262;50.922;6.958;2022-08-01T08:53:11;6.07;;;3.63;;
55391;SDS011;41262;50.922;6.958;2022-08-01T08:55:42;5.15;;;3.80;;
55391;SDS011;41262;50.922;6.958;2022-08-01T08:58:12;5.45;;;3.85;;
55391;SDS011;41262;50.922;6.958;2022-08-01T09:00:39;5.85;;;3.95;;
55391;SDS011;41262;50.922;6.958;2022-08-01T09:03:06;5.97;;;3.90;;
55391;SDS011;41262;50.922;6.958;2022-08-01T09:05:33;6.68;;;4.30;;
55391;SDS011;41262;50.922;6.958;2022-08-01T09:08:00;6.55;;;3.33;;
55391;SDS011;41262;50.922;6.958;2022-08-01T09:10:26;5.00;;;3.63;;
55391;SDS011;41262;50.922;6.958;2022-08-01T09:13:12;5.60;;;3.60;;
55391;SDS011;41262;50.922;6.958;2022-08-01T09:18:06;5.80;;;3.63;;
55391;SDS011;41262;50.922;6.958;2022-08-01T09:20:33;3.88;;;3.33;;
55391;SDS011;41262;50.922;6.958;2022-08-01T09:23:02;3.47;;;2.83;;
55391;SDS011;41262;50.922;6.958;2022-08-01T09:25:29;6.18;;;3.63;;
55391;SDS011;41262;50.922;6.958;2022-08-01T09:28:03;4.82;;;2.80;;
55391;SDS011;41262;50.922;6.958;2022-08-01T09:30:38;5.10;;;2.80;;
55391;SDS011;41262;50.922;6.958;2022-08-01T09:33:05;3.92;;;2.90;;
55391;SDS011;41262;50.922;6.958;2022-08-01T09:35:33;6.05;;;3.67;;
55391;SDS011;41262;50.922;6.958;2022-08-01T09:38:13;3.90;;;2.92;;
55391;SDS011;41262;50.922;6.958;2022-08-01T09:40:44;4.40;;;3.25;;
55391;SDS011;41262;50.922;6.958;2022-08-01T09:43:11;4.68;;;3.03;;
55391;SDS011;41262;50.922;6.958;2022-08-01T09:45:38;4.88;;;3.20;;
55391;SDS011;41262;50.922;6.958;2022-08-01T09:48:08;4.57;;;2.90;;
55391;SDS011;41262;50.922;6.958;2022-08-01T09:50:39;3.63;;;2.70;;
55391;SDS011;41262;50.922;6.958;2022-08-01T09:53:06;3.83;;;2.97;;
55391;SDS011;41262;50.922;6.958;2022-08-01T09:55:32;4.15;;;2.67;;
55391;SDS011;41262;50.922;6.958;2022-08-01T09:57:59;4.15;;;2.83;;
55391;SDS011;41262;50.922;6.958;2022-08-01T10:00:27;3.20;;;2.40;;
55391;SDS011;41262;50.922;6.958;2022-08-01T10:03:22;3.93;;;2.53;;
55391;SDS011;41262;50.922;6.958;2022-08-01T10:05:49;4.20;;;3.15;;
55391;SDS011;41262;50.922;6.958;2022-08-01T10:08:16;3.65;;;2.92;;
55391;SDS011;41262;50.922;6.958;2022-08-01T10:11:04;4.00;;;2.67;;
55391;SDS011;41262;50.922;6.958;2022-08-01T10:13:30;4.22;;;2.95;;
55391;SDS011;41262;50.922;6.958;2022-08-01T10:15:57;5.05;;;2.80;;
55391;SDS011;41262;50.922;6.958;2022-08-01T10:18:23;4.38;;;3.15;;
55391;SDS011;41262;50.922;6.958;2022-08-01T10:20:50;4.47;;;3.20;;
55391;SDS011;41262;50.922;6.958;2022-08-01T10:23:17;5.25;;;2.83;;
55391;SDS011;41262;50.922;6.958;2022-08-01T10:25:44;4.30;;;3.05;;
55391;SDS011;41262;50.922;6.958;2022-08-01T10:28:14;3.10;;;2.47;;
55391;SDS011;41262;50.922;6.958;2022-08-01T10:30:42;7.22;;;3.20;;
55391;SDS011;41262;50.922;6.958;2022-08-01T10:33:10;3.70;;;2.42;;
55391;SDS011;41262;50.922;6.958;2022-08-01T10:35:38;4.85;;;3.05;;
55391;SDS011;41262;50.922;6.958;2022-08-01T10:38:05;3.47;;;2.60;;
55391;SDS011;41262;50.922;6.958;2022-08-01T10:40:32;2.90;;;2.50;;
55391;SDS011;41262;50.922;6.958;2022-08-01T10:42:59;4.47;;;2.67;;
55391;SDS011;41262;50.922;6.958;2022-08-01T10:45:26;3.80;;;2.70;;
55391;SDS011;41262;50.922;6.958;2022-08-01T10:50:48;5.70;;;3.03;;
55391;SDS011;41262;50.922;6.958;2022-08-01T10:53:19;4.13;;;2.72;;
55391;SDS011;41262;50.922;6.958;2022-08-01T10:55:50;3.67;;;2.60;;
55391;SDS011;41262;50.922;6.958;2022-08-01T10:58:23;4.47;;;3.00;;
55391;SDS011;41262;50.922;6.958;2022-08-01T11:03:35;3.50;;;2.60;;
55391;SDS011;41262;50.922;6.958;2022-08-01T11:06:20;3.90;;;2.30;;
55391;SDS011;41262;50.922;6.958;2022-08-01T11:08:52;3.88;;;2.33;;
55391;SDS011;41262;50.922;6.958;2022-08-01T11:11:19;3.00;;;2.17;;
55391;SDS011;41262;50.922;6.958;2022-08-01T11:14:04;2.70;;;2.30;;
55391;SDS011;41262;50.922;6.958;2022-08-01T11:16:38;3.00;;;2.22;;
55391;SDS011;41262;50.922;6.958;2022-08-01T11:19:06;2.53;;;1.88;;
55391;SDS011;41262;50.922;6.958;2022-08-01T11:24:54;3.35;;;2.50;;
55391;SDS011;41262;50.922;6.958;2022-08-01T11:32:51;3.42;;;2.35;;
55391;SDS011;41262;50.922;6.958;2022-08-01T11:35:32;3.22;;;2.22;;
55391;SDS011;41262;50.922;6.958;2022-08-01T11:40:44;3.30;;;2.42;;
55391;SDS011;41262;50.922;6.958;2022-08-01T11:45:53;3.00;;;2.60;;
55391;SDS011;41262;50.922;6.958;2022-08-01T11:48:24;3.97;;;2.38;;
55391;SDS011;41262;50.922;6.958;2022-08-01T11:50:52;4.05;;;2.53;;
55391;SDS011;41262;50.922;6.958;2022-08-01T11:53:19;3.20;;;2.35;;
55391;SDS011;41262;50.922;6.958;2022-08-01T11:55:46;2.40;;;1.80;;
55391;SDS011;41262;50.922;6.958;2022-08-01T11:58:15;4.30;;;2.70;;
55391;SDS011;41262;50.922;6.958;2022-08-01T12:00:41;5.95;;;2.08;;
55391;SDS011;41262;50.922;6.958;2022-08-01T12:03:08;4.95;;;3.10;;
55391;SDS011;41262;50.922;6.958;2022-08-01T12:05:35;2.58;;;1.95;;
55391;SDS011;41262;50.922;6.958;2022-08-01T12:08:03;2.60;;;1.95;;
55391;SDS011;41262;50.922;6.958;2022-08-01T12:10:33;2.20;;;1.60;;
55391;SDS011;41262;50.922;6.958;2022-08-01T12:13:03;4.53;;;2.20;;
55391;SDS011;41262;50.922;6.958;2022-08-01T12:15:32;2.95;;;1.88;;
55391;SDS011;41262;50.922;6.958;2022-08-01T12:17:59;2.72;;;1.88;;
55391;SDS011;41262;50.922;6.958;2022-08-01T12:20:27;2.47;;;1.73;;
55391;SDS011;41262;50.922;6.958;2022-08-01T12:22:59;2.88;;;1.85;;
55391;SDS011;41262;50.922;6.958;2022-08-01T12:25:26;3.42;;;1.90;;
55391;SDS011;41262;50.922;6.958;2022-08-01T12:27:53;3.58;;;1.95;;
55391;SDS011;41262;50.922;6.958;2022-08-01T12:30:21;3.00;;;1.73;;
55391;SDS011;41262;50.922;6.958;2022-08-01T12:32:54;3.47;;;1.80;;
55391;SDS011;41262;50.922;6.958;2022-08-01T12:35:24;2.45;;;1.70;;
55391;SDS011;41262;50.922;6.958;2022-08-01T12:37:55;3.15;;;2.00;;
55391;SDS011;41262;50.922;6.958;2022-08-01T12:42:49;4.00;;;2.00;;
55391;SDS011;41262;50.922;6.958;2022-08-01T12:45:17;3.47;;;1.80;;
55391;SDS011;41262;50.922;6.958;2022-08-01T12:47:45;3.05;;;1.88;;
55391;SDS011;41262;50.922;6.958;2022-08-01T12:50:16;4.32;;;2.30;;
55391;SDS011;41262;50.922;6.958;2022-08-01T12:52:43;2.65;;;1.80;;
55391;SDS011;41262;50.922;6.958;2022-08-01T12:55:17;2.78;;;1.80;;
55391;SDS011;41262;50.922;6.958;2022-08-01T12:57:45;2.63;;;1.80;;
55391;SDS011;41262;50.922;6.958;2022-08-01T13:00:20;2.95;;;1.58;;
55391;SDS011;41262;50.922;6.958;2022-08-01T13:02:48;2.63;;;1.55;;
55391;SDS011;41262;50.922;6.958;2022-08-01T13:05:15;2.13;;;1.30;;
55391;SDS011;41262;50.922;6.958;2022-08-01T13:07:43;1.95;;;1.17;;
55391;SDS011;41262;50.922;6.958;2022-08-01T13:10:11;2.30;;;1.58;;
55391;SDS011;41262;50.922;6.958;2022-08-01T13:12:38;2.75;;;1.50;;
55391;SDS011;41262;50.922;6.958;2022-08-01T13:15:25;3.20;;;1.60;;
55391;SDS011;41262;50.922;6.958;2022-08-01T13:17:52;2.22;;;1.25;;
55391;SDS011;41262;50.922;6.958;2022-08-01T13:20:26;2.47;;;1.80;;
55391;SDS011;41262;50.922;6.958;2022-08-01T13:22:53;2.33;;;1.30;;
55391;SDS011;41262;50.922;6.958;2022-08-01T13:25:20;2.60;;;1.35;;
55391;SDS011;41262;50.922;6.958;2022-08-01T13:27:48;1.88;;;1.25;;
55391;SDS011;41262;50.922;6.958;2022-08-01T13:30:18;2.03;;;1.33;;
55391;SDS011;41262;50.922;6.958;2022-08-01T13:32:57;1.95;;;1.30;;
55391;SDS011;41262;50.922;6.958;2022-08-01T13:35:24;2.08;;;1.30;;
55391;SDS011;41262;50.922;6.958;2022-08-01T13:37:51;1.02;;;0.90;;
55391;SDS011;41262;50.922;6.958;2022-08-01T13:40:25;1.52;;;1.08;;
55391;SDS011;41262;50.922;6.958;2022-08-01T13:42:55;1.55;;;0.98;;
55391;SDS011;41262;50.922;6.958;2022-08-01T13:45:22;1.23;;;0.90;;
55391;SDS011;41262;50.922;6.958;2022-08-01T13:47:49;1.20;;;0.93;;
55391;SDS011;41262;50.922;6.958;2022-08-01T13:50:16;3.58;;;1.38;;
55391;SDS011;41262;50.922;6.958;2022-08-01T13:52:42;1.60;;;1.23;;
55391;SDS011;41262;50.922;6.958;2022-08-01T13:55:09;2.20;;;1.25;;
55391;SDS011;41262;50.922;6.958;2022-08-01T13:57:36;1.23;;;1.00;;
55391;SDS011;41262;50.922;6.958;2022-08-01T14:00:06;3.88;;;1.27;;
55391;SDS011;41262;50.922;6.958;2022-08-01T14:02:37;2.13;;;1.30;;
55391;SDS011;41262;50.922;6.958;2022-08-01T14:05:04;3.78;;;1.15;;
55391;SDS011;41262;50.922;6.958;2022-08-01T14:07:30;2.67;;;1.30;;
55391;SDS011;41262;50.922;6.958;2022-08-01T14:09:57;1.77;;;1.13;;
55391;SDS011;41262;50.922;6.958;2022-08-01T14:12:24;1.38;;;1.00;;
55391;SDS011;41262;50.922;6.958;2022-08-01T14:14:50;1.92;;;1.17;;
55391;SDS011;41262;50.922;6.958;2022-08-01T14:17:17;2.85;;;1.40;;
55391;SDS011;41262;50.922;6.958;2022-08-01T14:19:44;2.45;;;1.10;;
55391;SDS011;41262;50.922;6.958;2022-08-01T14:22:11;5.00;;;1.30;;
55391;SDS011;41262;50.922;6.958;2022-08-01T14:24:38;4.35;;;1.13;;
55391;SDS011;41262;50.922;6.958;2022-08-01T14:27:04;0.90;;;0.82;;
55391;SDS011;41262;50.922;6.958;2022-08-01T14:29:31;0.73;;;0.70;;
55391;SDS011;41262;50.922;6.958;2022-08-01T14:31:58;1.23;;;0.90;;
55391;SDS011;41262;50.922;6.958;2022-08-01T14:34:24;1.10;;;0.80;;
55391;SDS011;41262;50.922;6.958;2022-08-01T14:36:51;1.52;;;0.82;;
55391;SDS011;41262;50.922;6.958;2022-08-01T14:39:19;1.58;;;1.00;;
55391;SDS011;41262;50.922;6.958;2022-08-01T14:41:46;1.77;;;1.00;;
55391;SDS011;41262;50.922;6.958;2022-08-01T14:44:12;1.02;;;0.90;;
55391;SDS011;41262;50.922;6.958;2022-08-01T14:46:39;0.98;;;0.82;;
55391;SDS011;41262;50.922;6.958;2022-08-01T14:49:05;2.92;;;1.17;;
55391;SDS011;41262;50.922;6.958;2022-08-01T14:51:32;3.95;;;1.08;;
55391;SDS011;41262;50.922;6.958;2022-08-01T14:54:00;0.95;;;0.75;;
55391;SDS011;41262;50.922;6.958;2022-08-01T14:56:27;2.55;;;1.10;;
55391;SDS011;41262;50.922;6.958;2022-08-01T14:58:53;1.45;;;1.05;;
55391;SDS011;41262;50.922;6.958;2022-08-01T15:01:20;1.55;;;1.20;;
55391;SDS011;41262;50.922;6.958;2022-08-01T15:03:47;1.83;;;0.90;;
55391;SDS011;41262;50.922;6.958;2022-08-01T15:06:14;1.60;;;1.20;;
55391;SDS011;41262;50.922;6.958;2022-08-01T15:08:41;1.20;;;1.00;;
55391;SDS011;41262;50.922;6.958;2022-08-01T15:11:09;1.70;;;1.20;;
55391;SDS011;41262;50.922;6.958;2022-08-01T15:13:36;3.03;;;1.20;;
55391;SDS011;41262;50.922;6.958;2022-08-01T15:16:05;1.83;;;0.90;;
55391;SDS011;41262;50.922;6.958;2022-08-01T15:18:32;2.22;;;1.13;;
55391;SDS011;41262;50.922;6.958;2022-08-01T15:20:59;1.95;;;1.23;;
55391;SDS011;41262;50.922;6.958;2022-08-01T15:23:25;2.53;;;1.20;;
55391;SDS011;41262;50.922;6.958;2022-08-01T15:25:52;1.25;;;1.02;;
55391;SDS011;41262;50.922;6.958;2022-08-01T15:28:18;1.60;;;1.00;;
55391;SDS011;41262;50.922;6.958;2022-08-01T15:30:46;1.60;;;1.10;;
55391;SDS011;41262;50.922;6.958;2022-08-01T15:33:12;2.40;;;1.02;;
55391;SDS011;41262;50.922;6.958;2022-08-01T15:35:39;2.70;;;1.30;;